Active alerts

Hennepin
  Details for Hennepin Wind Advisory


weather webcam more information weather webcam


Thunder radar more information blitzortung!


Rain radar more information rain snow radar


Visit our other weather sites:

Template documentation
and downloads

And another site


 HENNEPIN  -  Wind Advisory Wind Advisory  

Nearby METAR Reports

   
EBBR - Brussels International Airport, Belgium
Distance from station: W 9 mi
Updated: Oct 21 2019 10:20 pm
Mostly Cloudy  
Mostly Cloudy  
   Wind: SSW 8.1 mph
Wind: SSW 8.1 mph
Temperature: 53.6°F
Dew Point: 51.8°F
Humidity: 94%
Barometer: 30.15 inHg
Clouds: Mostly Cloudy
Visibility: 6 mi
Cloud details: Mostly Cloudy 700 ft
EBBR 220320Z 21007KT 9000 BKN007 12/11 Q1021 REDZ NOSIG
EBBE - Beauvechain (Bevekom), Belgium
Distance from station: SSE 10 mi
Updated: Oct 21 2019 9:55 pm
Mist, Mostly Cloudy  
Mist, Mostly Cloudy  
   Wind: SSW 11.5 mph
Wind: SSW 11.5 mph
Temperature: 51.8°F
Dew Point: 51.8°F
Humidity: 100%
Barometer: 30.18 inHg
Clouds: Mostly Cloudy
Visibility: 3 mi
Cloud details: Mostly Cloudy 400 ft,
Mostly Cloudy 600 ft
EBBE 220255Z AUTO 20010KT 4900 BR BKN004/// BKN006/// 11/11 Q1022 YLO
EBDT - Schaffen, Belgium
Distance from station: ENE 18 mi
Updated: Oct 21 2019 9:55 pm
Overcast  
Overcast  
   Wind: South 6.9 mph
Wind: South 6.9 mph
Temperature: 51.8°F
Dew Point: 51.8°F
Humidity: 100%
Barometer: 30.18 inHg
Clouds: Overcast
Visibility: More than 6 mi
Cloud details: Mostly Cloudy 600 ft,
Mostly Cloudy 900 ft,
Overcast 10000 ft
EBDT 220255Z AUTO 19006KT 9999 BKN006/// BKN009/// OVC100/// 11/11 Q1022 YLO
EBAW - Antwerp/Deurne, Belgium
Distance from station: NNW 23 mi
Updated: Oct 21 2019 10:20 pm
Overcast  
Overcast  
   Wind: SSW 5.8 mph
Wind: SSW 5.8 mph
Temperature: 55.4°F
Dew Point: 51.8°F
Humidity: 88%
Barometer: 30.15 inHg
Clouds: Overcast
Visibility: 4 mi
Cloud details: Overcast 500 ft
EBAW 220320Z AUTO 20005KT 6000 // OVC005/// 13/11 Q1021
EBCI - Charleroi/Gosselies, Belgium
Distance from station: SSW 32 mi
Updated: Oct 21 2019 10:20 pm
Light Drizzle, Mist, Mostly Cloudy  
Light Drizzle, Mist, Mostly Cloudy  
   Wind: SSW 10.4 mph
Wind: SSW 10.4 mph
Temperature: 50°F
Wind Chill: 46.4°F
Dew Point: 48.2°F
Humidity: 94%
Barometer: 30.18 inHg
Clouds: Mostly Cloudy
Visibility: 3 mi
Cloud details: Partly Cloudy 300 ft,
Mostly Cloudy 500 ft
EBCI 220320Z 21009KT 5000 -DZ BR SCT003 BKN005 10/09 Q1022 TEMPO 3000 BR BKN004
EBLG - Bierset/Liege, Belgium
Distance from station: ESE 38 mi
Updated: Oct 21 2019 10:20 pm
Mostly Cloudy  
Mostly Cloudy  
   Wind: South 10.4 mph
Wind: South 10.4 mph
Temperature: 51.8°F
Dew Point: 48.2°F
Humidity: 88%
Barometer: 30.18 inHg
Clouds: Mostly Cloudy
Visibility: More than 6 mi
Cloud details: Mostly Cloudy 2500 ft
EBLG 220320Z 19009KT 160V220 9999 BKN025 11/09 Q1022 TEMPO BKN015

Script developed by  Saratoga-weather.org Adapted for the template by  Weerstation Leuven

You find our weather info also at:

Weather Underground

Midwestern Weather Network

Citizen Weather Observer Program (CWOP)

HAMweather, WeatherForYou, PWS Weather

Equipment we use:

Weather-station
Davis VP2

Weather-program
Cumulus

Davis VP2

Cumulus